PHONE : 982144972925-7+

NFA2X

  NFA2X 
  Dimensional Data
Size Number/Diameter Insulation Thickness Approx. Diameter Approx. Twisted Diameter Approx. Net Standard Quantity Per Reel
Lighting Neutral Phase
AL ALOY AL Lighting Neutral Phase Lighting Neutral Phase Weight
mm² pcs/mm pcs/mm pcs/mm mm mm mm mm mm mm mm kg/km m
2x25+25 - 7/2.13 7/2.13 - 1.4 1.4 - 9.2 9.2 21 338 1,000
2x35+25 - 7/2.13 7/2.52 - 1.4 1.6 - 9.2 10.8 24 394 1,000
2x50+35 - 7/2.52 7/3.02 - 1.6 1.6 - 10.8 12.3 26 526 1,000
2x70+50 - 7/3.02 19/2.17 - 1.6 1.8 - 12.3 14.5 31 760 1,000
2x95+70 - 19/2.52 19/2.52 - 1.8 2 - 16.2 16.6 36 975 1,000
3x25+25 - 7/2.13 7/2.13 - 1.4 1.4 - 9.2 9.2 24 425 1,000
3x35+25 - 7/2.13 7/2.52 - 1.4 1.6 - 9.2 10.8 27 537 1,000
3x50+35 - 7/2.52 7/3.02 - 1.6 1.6 - 10.8 12.3 30 717 1,000
3x70+50 - 7/3.02 19/2.17 - 1.6 1.8 - 12.3 1.5 36 1057 1,000
3x95+70 - 19/2.52 19/2.52 - 1.8 2 - 16.2 16.6 40 1340 1,000
Electrical Data
Size Number/Diameter Insulation Thickness Approx. Diameter Approx. Twisted Diameter Approx. Net Standard Quantity Per Reel
Lighting Neutral Phase
AL ALOY AL Lighting Neutral Phase Lighting Neutral Phase Weight
mm² pcs/mm pcs/mm pcs/mm mm mm mm mm mm mm mm kg/km m
2x25+25 - 7/2.13 7/2.13 - 1.4 1.4 - 9.2 9.2 21 338 1,000
2x35+25 - 7/2.13 7/2.52 - 1.4 1.6 - 9.2 10.8 24 394 1,000
2x50+35 - 7/2.52 7/3.02 - 1.6 1.6 - 10.8 12.3 26 526 1,000
2x70+50 - 7/3.02 19/2.17 - 1.6 1.8 - 12.3 14.5 31 760 1,000
2x95+70 - 19/2.52 19/2.52 - 1.8 2 - 16.2 16.6 36 975 1,000
3x25+25 - 7/2.13 7/2.13 - 1.4 1.4 - 9.2 9.2 24 425 1,000
3x35+25 - 7/2.13 7/2.52 - 1.4 1.6 - 9.2 10.8 27 537 1,000
3x50+35 - 7/2.52 7/3.02 - 1.6 1.6 - 10.8 12.3 30 717 1,000
3x70+50 - 7/3.02 19/2.17 - 1.6 1.8 - 12.3 1.5 36 1057 1,000
3x95+70 - 19/2.52 19/2.52 - 1.8 2 - 16.2 16.6 40 1340 1,000
NFA2X 
Size Number/Diameter Resistance at 20 °C Current Carrying Short Circuit Current at Breaking Load
Lighting Neutral Phase Capacity at 35 °C 1 sec.
AL ALOY AL Lighting Neutral Phase Lighting Phase Lighting Phase
mm² pcs/mm pcs/mm pcs/mm Ohm/km Ohm/km Ohm/km A A   kA kg
2x25+25 - 7/2.13 7/2.13 - 1.38 1.2 - 103 - 2.3 712
2x35+25 - 7/2.13 7/2.52 - 1.38 0.868 - 125 - 3.22 712
2x50+35 - 7/2.52 7/3.02 - 0.986 0.641 - 154 - 4.6 997
2x70+50 - 7/3.02 19/2.17 - 0.69 0.443 - 196 - 6.44 1395
2x95+70 - 19/2.52 19/2.52 - 0.45 0.32 - 242 - 4.6 1932
3x25+25 - 7/2.13 7/2.13 - 1.38 1.2 - 103 - 2.3 712
3x35+25 - 7/2.13 7/2.52 - 1.38 0.868 - 125 - 3.22 712
3x50+35 - 7/2.52 7/3.02 - 0.986 0 641 - 154 - 4.6 997
3x70+50 - 7/3.02 19/2.17 - 0.69 0 443 - 196 - 6.44 1395
3x95+70 - 19/2.52 19/2.52 - 0.45 0.32 - 242 - 4.6 1932
Dimensional Data
Size Number/Diameter Insulation Thickness Approx. Diameter Approx. Twisted Diameter Approx. Net Standard Quantity Per Reel
Lighting Neutral Phase
AL ALOY AL Lighting Neutral Phase Lighting Neutral Phase Weight
mm² pcs/mm pcs/mm pcs/mm mm mm mm mm mm mm mm kg/km m
3x25+25+2x16 7/1.71 7/2.13 7/2.13 1.2 1.4 1.4 7.5 9.2 9.2 32 598 1,000
3x35+25+2x16 7/1.71 7/2.13 7/2.52 1.2 1.4 1.6 7.5 9.2 10.8 34 683 1,000
2x50+35+2x16 7/1.71 7/2.52 7/3.02 1.2 1.6 1.6 7.5 10.8 12.3 40 863 1,000
2x70+50+2x16 7/1.71 7/3.02 19/2.17 1.2 1.6 1.8 7.5 12.3 14.5 48 1130 1,000
2x95+70+2x16 7/1.71 19/2.52 19/2.52 1.2 1.8 2 7.5 16.2 16.6 55 1410 1,000
3x25+25+16 7/1.71 7/2.13 7/2.13 1.2 1.4 1.4 7.5 9.2 9.2 32 528 1,000
3x35+25+16 7/1.71 7/2.13 7/2.52 1.2 1.4 1.6 7.5 9.2 10.8 34 613 1,000
3x50+35+16 7/1.71 7/2.52 7/3.02 1.2 1.6 1.6 7.5 10.8 12.3 40 793 1,000
3x70+50+16 7/1.71 7/3.02 19/2.17 1.2 1.6 1.8 7.5 12.3 14.5 48 1060 1,000
3x95+70+16 7/1.71 19/2.52 19/2.52 1.2 1.8 2 7.5 16.2 16.6 55 1340 1,000

 

Electrical Data
Size Number/Diameter Resistance at 20 °C Current Carrying Short Circuit Current at Breaking Load
Lighting Neutral Phase Capacity at 35 °C 1 sec.
AL ALOY AL Lighting Neutral Phase Lighting Phase Lighting Phase
mm² pcs/mm pcs/mm pcs/mm pcs/mm Ohm/km Ohm/km A A kA kA kg
3x25+25+2x16 7/1.71 7/2.13 7/2.13 1.91 1.38 1.2 72 103 1.47 2.3 712
3x35+25+2x16 7/1.71 7/2.13 7/2.52 1.91 1.38 0.868 72 125 1.47 3.22 712
2x50+35+2x16 7/1.71 7/2.52 7/3.02 1.91 0.986 0.641 72 154 1.47 4.6 997
2x70+50+2x16 7/1.71 7/3.02 19/2.17 1.91 0.69 0.443 72 196 1.47 6.44 1395
2x95+70+2x16 7/1.71 19/2.52 19/2.52 1.91 0.45 0.32 72 242 1.47 4.6 1932
3x25+25+16 7/1.71 7/2.13 7/2.13 1.91 1.38 1.2 72 103 1.47 2.3 712
3x35+25+16 7/1.71 7/2.13 7/2.52 1.91 1.38 0.868 72 125 1.47 3.22 712
3x50+35+16 7/1.71 7/2.52 7/3.02 1.91 0.986 0.641 72 154 1.47 4.6 997
3x70+50+16 7/1.71 7/3.02 19/2.17 1.91 0.69 0.443 72 196 1.47 6.44 1395
3x95+70+16 7/1.71 19/2.52 19/2.52 1.91 0.45 0.32 72 242 1.47 4.6 1932
Temperature Range
During Installation  -5°C
Fixed Instelled -30°C up to +80°C
Short Circuit 5Sec/ +160°C
Storage Temp 40°C
Mechanical and Electrical Specifications
Operationg Voltage Uο/U = 0.6/1KV
Test Voltage 4000 V AC for 5 Min
Min Bending Radius  12XD
Flame Behavior Acc to IEC 60332-1
Design Standards DIN VDE 0276 part 626/HRN HD 626 S1

Self-supporting overhead cable bundle, applied for electric power distribution in low voltage metropolitan, suburban and rural networks, for public lighting and house connections. Laid on pillars, consoles and house fronts.